Terminal Aerodrome Forecast
Issued by NWS

Home | Current Version | Previous Version | Graphics & Text | Print | Product List | Glossary On
Versions: 1 2 3 4 5 6 7 8 9 10 11 12 13 14 15 16 17 18 19 20 21
000
FTUS43 KGRB 220900 AAA
TAFATW
TAF AMD
KATW 220929Z 2209/2306 20012G16KT P6SM OVC016 WS015/23040KT
     FM221200 21009KT 6SM BR OVC015 WS015/24035KT
     FM221500 21009KT 5SM -DZ BR OVC012
     FM221800 20007KT 6SM BR BKN015
     FM230000 20005KT 5SM -DZ BR OVC012=

USA.gov is the U.S. government's official web portal to all federal, state and local government web resources and services.